sensor_id;sensor_type;location;lat;lon;timestamp;P1;durP1;ratioP1;P2;durP2;ratioP2
55172;SDS011;41061;52.822;6.860;2022-09-30T00:02:25;2.08;;;1.63;;
55172;SDS011;41061;52.822;6.860;2022-09-30T00:04:51;2.50;;;1.70;;
55172;SDS011;41061;52.822;6.860;2022-09-30T00:07:16;2.78;;;1.63;;
55172;SDS011;41061;52.822;6.860;2022-09-30T00:09:42;2.92;;;1.88;;
55172;SDS011;41061;52.822;6.860;2022-09-30T00:12:08;2.45;;;1.83;;
55172;SDS011;41061;52.822;6.860;2022-09-30T00:14:34;2.83;;;1.90;;
55172;SDS011;41061;52.822;6.860;2022-09-30T00:17:00;2.00;;;1.60;;
55172;SDS011;41061;52.822;6.860;2022-09-30T00:19:26;1.80;;;1.60;;
55172;SDS011;41061;52.822;6.860;2022-09-30T00:21:52;2.50;;;1.67;;
55172;SDS011;41061;52.822;6.860;2022-09-30T00:24:17;2.13;;;1.70;;
55172;SDS011;41061;52.822;6.860;2022-09-30T00:26:43;2.17;;;1.90;;
55172;SDS011;41061;52.822;6.860;2022-09-30T00:29:11;2.95;;;1.92;;
55172;SDS011;41061;52.822;6.860;2022-09-30T00:31:37;3.78;;;2.05;;
55172;SDS011;41061;52.822;6.860;2022-09-30T00:34:03;3.20;;;2.40;;
55172;SDS011;41061;52.822;6.860;2022-09-30T00:38:58;1.58;;;1.40;;
55172;SDS011;41061;52.822;6.860;2022-09-30T00:41:24;1.63;;;1.52;;
55172;SDS011;41061;52.822;6.860;2022-09-30T00:43:53;69.70;;;2.55;;
55172;SDS011;41061;52.822;6.860;2022-09-30T00:46:28;85.30;;;4.32;;
55172;SDS011;41061;52.822;6.860;2022-09-30T00:49:21;2.13;;;1.40;;
55172;SDS011;41061;52.822;6.860;2022-09-30T00:51:52;4.28;;;1.95;;
55172;SDS011;41061;52.822;6.860;2022-09-30T00:54:22;7.35;;;1.65;;
55172;SDS011;41061;52.822;6.860;2022-09-30T00:56:53;5.57;;;2.03;;
55172;SDS011;41061;52.822;6.860;2022-09-30T00:59:26;37.38;;;2.70;;
55172;SDS011;41061;52.822;6.860;2022-09-30T01:02:02;2.25;;;2.05;;
55172;SDS011;41061;52.822;6.860;2022-09-30T01:04:31;2.60;;;2.10;;
55172;SDS011;41061;52.822;6.860;2022-09-30T01:07:00;3.22;;;2.08;;
55172;SDS011;41061;52.822;6.860;2022-09-30T01:09:27;3.03;;;1.85;;
55172;SDS011;41061;52.822;6.860;2022-09-30T01:11:55;2.42;;;1.83;;
55172;SDS011;41061;52.822;6.860;2022-09-30T01:14:22;2.35;;;2.10;;
55172;SDS011;41061;52.822;6.860;2022-09-30T01:25:57;4.38;;;2.45;;
55172;SDS011;41061;52.822;6.860;2022-09-30T01:45:37;1.90;;;1.70;;
55172;SDS011;41061;52.822;6.860;2022-09-30T01:48:24;2.00;;;1.80;;
55172;SDS011;41061;52.822;6.860;2022-09-30T01:51:07;2.63;;;1.90;;
55172;SDS011;41061;52.822;6.860;2022-09-30T01:56:40;5.93;;;2.40;;
55172;SDS011;41061;52.822;6.860;2022-09-30T01:59:25;3.08;;;2.28;;
55172;SDS011;41061;52.822;6.860;2022-09-30T02:02:05;2.00;;;1.80;;
55172;SDS011;41061;52.822;6.860;2022-09-30T02:04:44;2.10;;;1.90;;
55172;SDS011;41061;52.822;6.860;2022-09-30T02:07:27;2.78;;;2.20;;
55172;SDS011;41061;52.822;6.860;2022-09-30T02:12:49;2.50;;;2.30;;
55172;SDS011;41061;52.822;6.860;2022-09-30T02:15:22;2.70;;;2.35;;
55172;SDS011;41061;52.822;6.860;2022-09-30T02:17:54;3.50;;;3.00;;
55172;SDS011;41061;52.822;6.860;2022-09-30T02:20:31;3.65;;;2.92;;
55172;SDS011;41061;52.822;6.860;2022-09-30T02:23:01;4.97;;;3.20;;
55172;SDS011;41061;52.822;6.860;2022-09-30T02:25:41;4.85;;;2.70;;
55172;SDS011;41061;52.822;6.860;2022-09-30T02:28:18;11.57;;;2.70;;
55172;SDS011;41061;52.822;6.860;2022-09-30T02:30:51;5.47;;;2.40;;
55172;SDS011;41061;52.822;6.860;2022-09-30T02:33:31;2.95;;;2.55;;
55172;SDS011;41061;52.822;6.860;2022-09-30T02:36:04;3.75;;;2.60;;
55172;SDS011;41061;52.822;6.860;2022-09-30T02:38:39;93.05;;;4.18;;
55172;SDS011;41061;52.822;6.860;2022-09-30T02:41:13;3.03;;;2.72;;
55172;SDS011;41061;52.822;6.860;2022-09-30T02:57:19;2.75;;;2.28;;
55172;SDS011;41061;52.822;6.860;2022-09-30T02:59:56;3.28;;;2.30;;
55172;SDS011;41061;52.822;6.860;2022-09-30T03:02:22;2.65;;;2.45;;
55172;SDS011;41061;52.822;6.860;2022-09-30T03:04:48;3.25;;;2.55;;
55172;SDS011;41061;52.822;6.860;2022-09-30T03:07:14;3.00;;;2.10;;
55172;SDS011;41061;52.822;6.860;2022-09-30T03:09:40;2.65;;;2.45;;
55172;SDS011;41061;52.822;6.860;2022-09-30T03:15:01;2.83;;;2.28;;
55172;SDS011;41061;52.822;6.860;2022-09-30T03:20:22;16.38;;;3.30;;
55172;SDS011;41061;52.822;6.860;2022-09-30T03:28:26;6.45;;;2.65;;
55172;SDS011;41061;52.822;6.860;2022-09-30T03:31:17;89.10;;;5.45;;
55172;SDS011;41061;52.822;6.860;2022-09-30T03:33:51;218.43;;;11.75;;
55172;SDS011;41061;52.822;6.860;2022-09-30T03:36:41;39.75;;;3.97;;
55172;SDS011;41061;52.822;6.860;2022-09-30T03:41:53;3.80;;;2.95;;
55172;SDS011;41061;52.822;6.860;2022-09-30T03:44:28;3.38;;;3.08;;
55172;SDS011;41061;52.822;6.860;2022-09-30T03:47:05;12.73;;;2.80;;
55172;SDS011;41061;52.822;6.860;2022-09-30T03:49:35;4.20;;;2.53;;
55172;SDS011;41061;52.822;6.860;2022-09-30T03:52:07;3.20;;;2.78;;
55172;SDS011;41061;52.822;6.860;2022-09-30T03:54:55;3.00;;;2.70;;
55172;SDS011;41061;52.822;6.860;2022-09-30T03:57:24;4.68;;;2.92;;
55172;SDS011;41061;52.822;6.860;2022-09-30T03:59:56;4.50;;;3.00;;
55172;SDS011;41061;52.822;6.860;2022-09-30T04:02:26;3.40;;;3.10;;
55172;SDS011;41061;52.822;6.860;2022-09-30T04:04:51;3.20;;;2.90;;
55172;SDS011;41061;52.822;6.860;2022-09-30T04:07:17;3.50;;;3.13;;
55172;SDS011;41061;52.822;6.860;2022-09-30T04:09:46;51.03;;;4.50;;
55172;SDS011;41061;52.822;6.860;2022-09-30T04:12:11;11.05;;;3.00;;
55172;SDS011;41061;52.822;6.860;2022-09-30T04:14:37;43.40;;;3.78;;
55172;SDS011;41061;52.822;6.860;2022-09-30T04:17:03;3.60;;;3.30;;
55172;SDS011;41061;52.822;6.860;2022-09-30T04:19:30;4.10;;;3.70;;
55172;SDS011;41061;52.822;6.860;2022-09-30T04:21:56;6.00;;;3.83;;
55172;SDS011;41061;52.822;6.860;2022-09-30T04:24:22;3.33;;;3.03;;
55172;SDS011;41061;52.822;6.860;2022-09-30T04:26:49;3.20;;;2.90;;
55172;SDS011;41061;52.822;6.860;2022-09-30T04:29:15;3.00;;;2.70;;
55172;SDS011;41061;52.822;6.860;2022-09-30T04:31:41;4.97;;;2.88;;
55172;SDS011;41061;52.822;6.860;2022-09-30T04:34:07;4.53;;;2.55;;
55172;SDS011;41061;52.822;6.860;2022-09-30T04:36:34;3.17;;;2.88;;
55172;SDS011;41061;52.822;6.860;2022-09-30T04:39:00;3.55;;;2.63;;
55172;SDS011;41061;52.822;6.860;2022-09-30T04:41:26;2.78;;;2.58;;
55172;SDS011;41061;52.822;6.860;2022-09-30T04:43:52;2.80;;;2.60;;
55172;SDS011;41061;52.822;6.860;2022-09-30T04:46:18;2.67;;;2.47;;
55172;SDS011;41061;52.822;6.860;2022-09-30T04:48:46;3.65;;;2.50;;
55172;SDS011;41061;52.822;6.860;2022-09-30T04:51:13;2.60;;;2.40;;
55172;SDS011;41061;52.822;6.860;2022-09-30T04:53:41;3.33;;;2.47;;
55172;SDS011;41061;52.822;6.860;2022-09-30T04:56:07;2.88;;;2.63;;
55172;SDS011;41061;52.822;6.860;2022-09-30T04:58:34;3.88;;;2.70;;
55172;SDS011;41061;52.822;6.860;2022-09-30T05:01:03;3.13;;;2.83;;
55172;SDS011;41061;52.822;6.860;2022-09-30T05:03:31;14.52;;;2.88;;
55172;SDS011;41061;52.822;6.860;2022-09-30T05:06:01;2.95;;;2.75;;
55172;SDS011;41061;52.822;6.860;2022-09-30T05:08:30;3.25;;;2.95;;
55172;SDS011;41061;52.822;6.860;2022-09-30T05:11:02;2.92;;;2.58;;
55172;SDS011;41061;52.822;6.860;2022-09-30T05:13:30;12.77;;;2.85;;
55172;SDS011;41061;52.822;6.860;2022-09-30T05:15:58;2.42;;;2.22;;
55172;SDS011;41061;52.822;6.860;2022-09-30T05:18:24;2.78;;;2.47;;
55172;SDS011;41061;52.822;6.860;2022-09-30T05:20:52;4.10;;;2.50;;
55172;SDS011;41061;52.822;6.860;2022-09-30T05:23:19;2.40;;;2.20;;
55172;SDS011;41061;52.822;6.860;2022-09-30T05:25:46;20.38;;;2.72;;
55172;SDS011;41061;52.822;6.860;2022-09-30T05:28:12;9.60;;;2.80;;
55172;SDS011;41061;52.822;6.860;2022-09-30T05:30:38;10.75;;;2.38;;
55172;SDS011;41061;52.822;6.860;2022-09-30T05:33:07;2.85;;;2.40;;
55172;SDS011;41061;52.822;6.860;2022-09-30T05:35:34;4.10;;;2.53;;
55172;SDS011;41061;52.822;6.860;2022-09-30T05:38:00;3.78;;;2.55;;
55172;SDS011;41061;52.822;6.860;2022-09-30T05:40:30;3.00;;;2.70;;
55172;SDS011;41061;52.822;6.860;2022-09-30T05:42:57;4.78;;;2.67;;
55172;SDS011;41061;52.822;6.860;2022-09-30T05:45:23;3.80;;;3.45;;
55172;SDS011;41061;52.822;6.860;2022-09-30T05:47:53;3.50;;;3.20;;
55172;SDS011;41061;52.822;6.860;2022-09-30T05:50:22;4.25;;;3.85;;
55172;SDS011;41061;52.822;6.860;2022-09-30T05:52:49;7.85;;;4.05;;
55172;SDS011;41061;52.822;6.860;2022-09-30T05:55:15;4.53;;;3.75;;
55172;SDS011;41061;52.822;6.860;2022-09-30T05:57:41;4.55;;;3.90;;
55172;SDS011;41061;52.822;6.860;2022-09-30T06:00:08;3.55;;;3.25;;
55172;SDS011;41061;52.822;6.860;2022-09-30T06:02:37;5.53;;;3.40;;
55172;SDS011;41061;52.822;6.860;2022-09-30T06:05:03;3.78;;;3.38;;
55172;SDS011;41061;52.822;6.860;2022-09-30T06:07:32;5.40;;;3.47;;
55172;SDS011;41061;52.822;6.860;2022-09-30T06:09:58;5.50;;;3.90;;
55172;SDS011;41061;52.822;6.860;2022-09-30T06:12:24;7.57;;;4.30;;
55172;SDS011;41061;52.822;6.860;2022-09-30T06:14:53;5.28;;;4.45;;
55172;SDS011;41061;52.822;6.860;2022-09-30T06:17:22;8.45;;;4.82;;
55172;SDS011;41061;52.822;6.860;2022-09-30T06:19:48;5.95;;;4.43;;
55172;SDS011;41061;52.822;6.860;2022-09-30T06:22:14;5.68;;;4.80;;
55172;SDS011;41061;52.822;6.860;2022-09-30T06:24:40;5.18;;;4.57;;
55172;SDS011;41061;52.822;6.860;2022-09-30T06:27:06;6.45;;;5.55;;
55172;SDS011;41061;52.822;6.860;2022-09-30T06:29:32;4.97;;;4.47;;
55172;SDS011;41061;52.822;6.860;2022-09-30T06:31:58;5.97;;;5.38;;
55172;SDS011;41061;52.822;6.860;2022-09-30T06:34:23;5.75;;;4.60;;
55172;SDS011;41061;52.822;6.860;2022-09-30T06:36:49;5.50;;;4.72;;
55172;SDS011;41061;52.822;6.860;2022-09-30T06:39:15;6.30;;;5.55;;
55172;SDS011;41061;52.822;6.860;2022-09-30T06:41:40;7.38;;;5.82;;
55172;SDS011;41061;52.822;6.860;2022-09-30T06:44:08;8.40;;;6.25;;
55172;SDS011;41061;52.822;6.860;2022-09-30T06:46:34;11.07;;;7.40;;
55172;SDS011;41061;52.822;6.860;2022-09-30T06:49:00;12.05;;;7.32;;
55172;SDS011;41061;52.822;6.860;2022-09-30T06:51:26;10.05;;;6.82;;
55172;SDS011;41061;52.822;6.860;2022-09-30T06:53:56;8.13;;;7.32;;
55172;SDS011;41061;52.822;6.860;2022-09-30T06:56:22;8.95;;;7.28;;
55172;SDS011;41061;52.822;6.860;2022-09-30T06:58:48;11.93;;;7.82;;
55172;SDS011;41061;52.822;6.860;2022-09-30T07:01:13;9.10;;;7.13;;
55172;SDS011;41061;52.822;6.860;2022-09-30T07:03:43;13.63;;;7.40;;
55172;SDS011;41061;52.822;6.860;2022-09-30T07:06:13;9.77;;;7.57;;
55172;SDS011;41061;52.822;6.860;2022-09-30T07:08:42;9.60;;;7.68;;
55172;SDS011;41061;52.822;6.860;2022-09-30T07:11:08;13.32;;;8.18;;
55172;SDS011;41061;52.822;6.860;2022-09-30T07:13:39;9.93;;;8.43;;
55172;SDS011;41061;52.822;6.860;2022-09-30T07:16:08;10.63;;;8.32;;
55172;SDS011;41061;52.822;6.860;2022-09-30T07:18:35;9.93;;;8.30;;
55172;SDS011;41061;52.822;6.860;2022-09-30T07:21:02;12.20;;;7.95;;
55172;SDS011;41061;52.822;6.860;2022-09-30T07:23:27;8.05;;;7.25;;
55172;SDS011;41061;52.822;6.860;2022-09-30T07:25:58;10.32;;;8.45;;
55172;SDS011;41061;52.822;6.860;2022-09-30T07:28:28;12.73;;;8.73;;
55172;SDS011;41061;52.822;6.860;2022-09-30T07:31:00;10.27;;;8.40;;
55172;SDS011;41061;52.822;6.860;2022-09-30T07:33:30;11.02;;;8.60;;
55172;SDS011;41061;52.822;6.860;2022-09-30T07:36:00;12.85;;;8.70;;
55172;SDS011;41061;52.822;6.860;2022-09-30T07:38:29;9.88;;;7.95;;
55172;SDS011;41061;52.822;6.860;2022-09-30T07:43:26;12.05;;;7.95;;
55172;SDS011;41061;52.822;6.860;2022-09-30T07:46:09;9.32;;;7.60;;
55172;SDS011;41061;52.822;6.860;2022-09-30T07:48:49;10.90;;;8.10;;
55172;SDS011;41061;52.822;6.860;2022-09-30T07:51:18;9.40;;;7.38;;
55172;SDS011;41061;52.822;6.860;2022-09-30T07:53:46;9.77;;;8.07;;
55172;SDS011;41061;52.822;6.860;2022-09-30T07:56:17;12.63;;;8.45;;
55172;SDS011;41061;52.822;6.860;2022-09-30T07:58:46;10.77;;;8.40;;
55172;SDS011;41061;52.822;6.860;2022-09-30T08:01:13;10.23;;;7.80;;
55172;SDS011;41061;52.822;6.860;2022-09-30T08:03:42;12.02;;;8.77;;
55172;SDS011;41061;52.822;6.860;2022-09-30T08:06:11;12.77;;;8.05;;
55172;SDS011;41061;52.822;6.860;2022-09-30T08:08:37;10.70;;;7.95;;
55172;SDS011;41061;52.822;6.860;2022-09-30T08:11:03;12.95;;;8.15;;
55172;SDS011;41061;52.822;6.860;2022-09-30T08:13:30;13.45;;;8.27;;
55172;SDS011;41061;52.822;6.860;2022-09-30T08:15:55;10.05;;;7.57;;
55172;SDS011;41061;52.822;6.860;2022-09-30T08:18:21;9.82;;;7.70;;
55172;SDS011;41061;52.822;6.860;2022-09-30T08:20:46;10.43;;;8.27;;
55172;SDS011;41061;52.822;6.860;2022-09-30T08:23:12;9.18;;;7.70;;
55172;SDS011;41061;52.822;6.860;2022-09-30T08:25:38;10.98;;;7.97;;
55172;SDS011;41061;52.822;6.860;2022-09-30T08:28:03;16.52;;;8.40;;
55172;SDS011;41061;52.822;6.860;2022-09-30T08:30:29;11.45;;;8.82;;
55172;SDS011;41061;52.822;6.860;2022-09-30T08:32:55;11.65;;;8.48;;
55172;SDS011;41061;52.822;6.860;2022-09-30T08:35:24;8.88;;;7.22;;
55172;SDS011;41061;52.822;6.860;2022-09-30T08:37:50;10.60;;;7.43;;
55172;SDS011;41061;52.822;6.860;2022-09-30T08:40:17;10.85;;;7.68;;
55172;SDS011;41061;52.822;6.860;2022-09-30T08:48:28;9.93;;;7.80;;
55172;SDS011;41061;52.822;6.860;2022-09-30T08:54:02;8.25;;;7.20;;
55172;SDS011;41061;52.822;6.860;2022-09-30T08:56:31;11.13;;;7.32;;
55172;SDS011;41061;52.822;6.860;2022-09-30T09:01:41;8.77;;;6.13;;
55172;SDS011;41061;52.822;6.860;2022-09-30T09:04:12;6.97;;;6.13;;
55172;SDS011;41061;52.822;6.860;2022-09-30T09:06:51;8.73;;;6.00;;
55172;SDS011;41061;52.822;6.860;2022-09-30T09:12:47;8.10;;;5.57;;
55172;SDS011;41061;52.822;6.860;2022-09-30T09:15:50;7.90;;;5.07;;
55172;SDS011;41061;52.822;6.860;2022-09-30T09:18:33;6.40;;;4.45;;
55172;SDS011;41061;52.822;6.860;2022-09-30T09:24:41;7.57;;;4.57;;
55172;SDS011;41061;52.822;6.860;2022-09-30T09:27:16;6.22;;;4.63;;
55172;SDS011;41061;52.822;6.860;2022-09-30T09:32:19;6.80;;;3.60;;
55172;SDS011;41061;52.822;6.860;2022-09-30T09:34:49;6.10;;;4.03;;
55172;SDS011;41061;52.822;6.860;2022-09-30T09:37:21;5.50;;;3.80;;
55172;SDS011;41061;52.822;6.860;2022-09-30T09:45:53;4.93;;;4.43;;
55172;SDS011;41061;52.822;6.860;2022-09-30T09:48:24;4.82;;;4.00;;
55172;SDS011;41061;52.822;6.860;2022-09-30T09:50:54;7.57;;;4.90;;
55172;SDS011;41061;52.822;6.860;2022-09-30T09:53:32;6.50;;;4.50;;
55172;SDS011;41061;52.822;6.860;2022-09-30T09:56:18;8.23;;;5.05;;
55172;SDS011;41061;52.822;6.860;2022-09-30T09:59:04;6.57;;;5.10;;
55172;SDS011;41061;52.822;6.860;2022-09-30T10:01:45;8.63;;;5.10;;
55172;SDS011;41061;52.822;6.860;2022-09-30T10:06:58;8.98;;;5.03;;
55172;SDS011;41061;52.822;6.860;2022-09-30T10:09:26;8.30;;;4.80;;
55172;SDS011;41061;52.822;6.860;2022-09-30T10:14:31;6.43;;;4.63;;
55172;SDS011;41061;52.822;6.860;2022-09-30T10:17:00;8.02;;;4.97;;
55172;SDS011;41061;52.822;6.860;2022-09-30T10:19:31;5.97;;;4.88;;
55172;SDS011;41061;52.822;6.860;2022-09-30T10:22:23;6.18;;;4.88;;
55172;SDS011;41061;52.822;6.860;2022-09-30T10:24:49;11.05;;;4.95;;
55172;SDS011;41061;52.822;6.860;2022-09-30T10:27:28;6.82;;;5.45;;
55172;SDS011;41061;52.822;6.860;2022-09-30T10:29:56;6.43;;;5.20;;
55172;SDS011;41061;52.822;6.860;2022-09-30T10:32:21;6.43;;;5.60;;
55172;SDS011;41061;52.822;6.860;2022-09-30T10:34:53;8.57;;;6.05;;
55172;SDS011;41061;52.822;6.860;2022-09-30T10:37:22;7.60;;;6.00;;
55172;SDS011;41061;52.822;6.860;2022-09-30T10:39:56;8.07;;;6.05;;
55172;SDS011;41061;52.822;6.860;2022-09-30T10:42:28;8.85;;;7.18;;
55172;SDS011;41061;52.822;6.860;2022-09-30T10:45:07;7.78;;;6.70;;
55172;SDS011;41061;52.822;6.860;2022-09-30T10:47:45;9.07;;;7.68;;
55172;SDS011;41061;52.822;6.860;2022-09-30T10:50:18;8.40;;;6.95;;
55172;SDS011;41061;52.822;6.860;2022-09-30T10:52:49;11.75;;;6.97;;
55172;SDS011;41061;52.822;6.860;2022-09-30T11:00:46;12.05;;;7.75;;
55172;SDS011;41061;52.822;6.860;2022-09-30T11:03:19;8.02;;;5.68;;
55172;SDS011;41061;52.822;6.860;2022-09-30T11:05:48;6.93;;;5.63;;
55172;SDS011;41061;52.822;6.860;2022-09-30T11:08:19;12.13;;;6.38;;
55172;SDS011;41061;52.822;6.860;2022-09-30T11:11:12;9.15;;;5.72;;
55172;SDS011;41061;52.822;6.860;2022-09-30T11:13:56;7.97;;;5.55;;
55172;SDS011;41061;52.822;6.860;2022-09-30T11:16:46;7.20;;;5.95;;
55172;SDS011;41061;52.822;6.860;2022-09-30T11:19:26;6.38;;;4.90;;
55172;SDS011;41061;52.822;6.860;2022-09-30T11:22:36;8.02;;;4.88;;
55172;SDS011;41061;52.822;6.860;2022-09-30T11:25:10;7.28;;;5.30;;
55172;SDS011;41061;52.822;6.860;2022-09-30T11:27:57;5.85;;;5.25;;
55172;SDS011;41061;52.822;6.860;2022-09-30T11:31:05;6.80;;;5.57;;
55172;SDS011;41061;52.822;6.860;2022-09-30T11:36:46;7.72;;;5.30;;
55172;SDS011;41061;52.822;6.860;2022-09-30T11:41:59;7.13;;;5.93;;
55172;SDS011;41061;52.822;6.860;2022-09-30T11:44:47;10.20;;;7.00;;
55172;SDS011;41061;52.822;6.860;2022-09-30T11:47:30;10.68;;;7.82;;
55172;SDS011;41061;52.822;6.860;2022-09-30T11:58:02;8.18;;;6.25;;
55172;SDS011;41061;52.822;6.860;2022-09-30T12:00:33;7.95;;;6.05;;
55172;SDS011;41061;52.822;6.860;2022-09-30T12:03:09;12.25;;;8.35;;
55172;SDS011;41061;52.822;6.860;2022-09-30T12:05:42;10.55;;;9.38;;
55172;SDS011;41061;52.822;6.860;2022-09-30T12:08:14;9.63;;;7.78;;
55172;SDS011;41061;52.822;6.860;2022-09-30T12:10:49;10.38;;;7.65;;
55172;SDS011;41061;52.822;6.860;2022-09-30T12:15:52;11.80;;;8.80;;
55172;SDS011;41061;52.822;6.860;2022-09-30T12:18:21;9.73;;;8.43;;
55172;SDS011;41061;52.822;6.860;2022-09-30T12:20:55;10.70;;;8.90;;
55172;SDS011;41061;52.822;6.860;2022-09-30T12:23:40;15.10;;;8.18;;
55172;SDS011;41061;52.822;6.860;2022-09-30T12:26:10;10.80;;;7.60;;
55172;SDS011;41061;52.822;6.860;2022-09-30T12:28:53;8.05;;;7.25;;
55172;SDS011;41061;52.822;6.860;2022-09-30T12:40:23;7.57;;;6.72;;
55172;SDS011;41061;52.822;6.860;2022-09-30T12:48:35;9.23;;;7.53;;
55172;SDS011;41061;52.822;6.860;2022-09-30T12:51:04;8.98;;;8.07;;
55172;SDS011;41061;52.822;6.860;2022-09-30T12:53:32;13.00;;;7.25;;
55172;SDS011;41061;52.822;6.860;2022-09-30T12:56:01;9.40;;;6.80;;
55172;SDS011;41061;52.822;6.860;2022-09-30T12:58:34;8.55;;;7.63;;
55172;SDS011;41061;52.822;6.860;2022-09-30T13:01:13;8.65;;;7.18;;
55172;SDS011;41061;52.822;6.860;2022-09-30T13:03:47;11.32;;;8.32;;
55172;SDS011;41061;52.822;6.860;2022-09-30T13:06:14;12.40;;;8.40;;
55172;SDS011;41061;52.822;6.860;2022-09-30T13:08:48;15.30;;;7.70;;
55172;SDS011;41061;52.822;6.860;2022-09-30T13:11:42;10.77;;;7.68;;
55172;SDS011;41061;52.822;6.860;2022-09-30T13:14:15;8.93;;;6.97;;
55172;SDS011;41061;52.822;6.860;2022-09-30T13:17:02;11.07;;;7.72;;
55172;SDS011;41061;52.822;6.860;2022-09-30T13:25:13;10.38;;;8.10;;
55172;SDS011;41061;52.822;6.860;2022-09-30T13:27:47;9.43;;;8.45;;
55172;SDS011;41061;52.822;6.860;2022-09-30T13:30:36;10.43;;;9.18;;
55172;SDS011;41061;52.822;6.860;2022-09-30T13:33:05;9.93;;;8.57;;
55172;SDS011;41061;52.822;6.860;2022-09-30T13:36:06;9.52;;;8.32;;
55172;SDS011;41061;52.822;6.860;2022-09-30T13:38:42;13.68;;;8.75;;
55172;SDS011;41061;52.822;6.860;2022-09-30T13:41:19;9.95;;;8.38;;
55172;SDS011;41061;52.822;6.860;2022-09-30T13:46:29;9.30;;;7.53;;
55172;SDS011;41061;52.822;6.860;2022-09-30T13:52:06;10.48;;;8.60;;
55172;SDS011;41061;52.822;6.860;2022-09-30T13:54:38;11.55;;;8.07;;
55172;SDS011;41061;52.822;6.860;2022-09-30T13:57:14;14.77;;;8.57;;
55172;SDS011;41061;52.822;6.860;2022-09-30T13:59:47;11.73;;;8.88;;
55172;SDS011;41061;52.822;6.860;2022-09-30T14:16:42;11.52;;;9.35;;
55172;SDS011;41061;52.822;6.860;2022-09-30T14:22:07;10.35;;;8.95;;
55172;SDS011;41061;52.822;6.860;2022-09-30T14:24:37;12.60;;;8.38;;
55172;SDS011;41061;52.822;6.860;2022-09-30T14:32:25;9.93;;;8.50;;
55172;SDS011;41061;52.822;6.860;2022-09-30T14:34:51;10.85;;;8.52;;
55172;SDS011;41061;52.822;6.860;2022-09-30T14:37:27;10.93;;;8.32;;
55172;SDS011;41061;52.822;6.860;2022-09-30T14:40:01;9.85;;;8.85;;
55172;SDS011;41061;52.822;6.860;2022-09-30T14:45:00;9.70;;;8.02;;
55172;SDS011;41061;52.822;6.860;2022-09-30T14:47:38;10.00;;;8.70;;
55172;SDS011;41061;52.822;6.860;2022-09-30T14:50:10;11.25;;;8.60;;
55172;SDS011;41061;52.822;6.860;2022-09-30T14:52:47;8.82;;;7.93;;
55172;SDS011;41061;52.822;6.860;2022-09-30T14:55:21;9.90;;;8.40;;
55172;SDS011;41061;52.822;6.860;2022-09-30T14:58:16;9.70;;;8.50;;
55172;SDS011;41061;52.822;6.860;2022-09-30T15:00:46;12.05;;;9.13;;
55172;SDS011;41061;52.822;6.860;2022-09-30T15:03:34;10.82;;;9.35;;
55172;SDS011;41061;52.822;6.860;2022-09-30T15:06:04;10.80;;;8.82;;
55172;SDS011;41061;52.822;6.860;2022-09-30T15:08:40;10.77;;;8.75;;
55172;SDS011;41061;52.822;6.860;2022-09-30T15:11:06;10.10;;;8.82;;
55172;SDS011;41061;52.822;6.860;2022-09-30T15:13:34;8.88;;;7.70;;
55172;SDS011;41061;52.822;6.860;2022-09-30T15:16:01;13.52;;;8.82;;
55172;SDS011;41061;52.822;6.860;2022-09-30T15:18:31;10.50;;;9.40;;
55172;SDS011;41061;52.822;6.860;2022-09-30T15:21:05;12.93;;;9.70;;
55172;SDS011;41061;52.822;6.860;2022-09-30T15:23:43;11.15;;;9.98;;
55172;SDS011;41061;52.822;6.860;2022-09-30T15:26:16;11.57;;;10.05;;
55172;SDS011;41061;52.822;6.860;2022-09-30T15:28:45;12.23;;;10.13;;
55172;SDS011;41061;52.822;6.860;2022-09-30T15:31:33;10.57;;;9.48;;
55172;SDS011;41061;52.822;6.860;2022-09-30T15:33:59;13.05;;;10.50;;
55172;SDS011;41061;52.822;6.860;2022-09-30T15:36:59;11.75;;;9.90;;
55172;SDS011;41061;52.822;6.860;2022-09-30T15:39:33;17.27;;;11.50;;
55172;SDS011;41061;52.822;6.860;2022-09-30T15:45:00;13.23;;;10.95;;
55172;SDS011;41061;52.822;6.860;2022-09-30T15:47:28;12.13;;;9.95;;
55172;SDS011;41061;52.822;6.860;2022-09-30T15:49:54;10.85;;;9.52;;
55172;SDS011;41061;52.822;6.860;2022-09-30T15:52:23;10.40;;;9.27;;
55172;SDS011;41061;52.822;6.860;2022-09-30T15:55:02;11.32;;;10.13;;
55172;SDS011;41061;52.822;6.860;2022-09-30T16:01:08;11.70;;;9.13;;
55172;SDS011;41061;52.822;6.860;2022-09-30T16:12:02;13.13;;;9.05;;
55172;SDS011;41061;52.822;6.860;2022-09-30T16:14:40;11.05;;;9.63;;
55172;SDS011;41061;52.822;6.860;2022-09-30T16:17:17;9.77;;;8.25;;
55172;SDS011;41061;52.822;6.860;2022-09-30T16:20:02;11.65;;;8.40;;
55172;SDS011;41061;52.822;6.860;2022-09-30T16:27:43;9.80;;;8.80;;
55172;SDS011;41061;52.822;6.860;2022-09-30T16:30:13;8.40;;;7.57;;
55172;SDS011;41061;52.822;6.860;2022-09-30T16:32:42;8.38;;;7.43;;
55172;SDS011;41061;52.822;6.860;2022-09-30T16:35:18;10.27;;;7.72;;
55172;SDS011;41061;52.822;6.860;2022-09-30T16:37:48;10.85;;;6.97;;
55172;SDS011;41061;52.822;6.860;2022-09-30T16:40:22;7.63;;;6.43;;
55172;SDS011;41061;52.822;6.860;2022-09-30T16:42:49;8.93;;;6.40;;
55172;SDS011;41061;52.822;6.860;2022-09-30T16:45:16;7.30;;;6.43;;
55172;SDS011;41061;52.822;6.860;2022-09-30T16:47:42;8.38;;;6.93;;
55172;SDS011;41061;52.822;6.860;2022-09-30T16:50:19;8.00;;;6.50;;
55172;SDS011;41061;52.822;6.860;2022-09-30T16:52:58;7.05;;;5.85;;
55172;SDS011;41061;52.822;6.860;2022-09-30T16:55:24;7.93;;;6.80;;
55172;SDS011;41061;52.822;6.860;2022-09-30T16:57:51;12.95;;;7.20;;
55172;SDS011;41061;52.822;6.860;2022-09-30T17:00:21;10.35;;;6.35;;
55172;SDS011;41061;52.822;6.860;2022-09-30T17:02:47;7.05;;;6.00;;
55172;SDS011;41061;52.822;6.860;2022-09-30T17:05:14;6.85;;;6.15;;
55172;SDS011;41061;52.822;6.860;2022-09-30T17:07:46;9.38;;;6.13;;
55172;SDS011;41061;52.822;6.860;2022-09-30T17:10:29;9.57;;;6.28;;
55172;SDS011;41061;52.822;6.860;2022-09-30T17:12:56;8.98;;;6.15;;
55172;SDS011;41061;52.822;6.860;2022-09-30T17:15:26;8.35;;;6.60;;
55172;SDS011;41061;52.822;6.860;2022-09-30T17:17:54;7.25;;;6.43;;
55172;SDS011;41061;52.822;6.860;2022-09-30T17:20:20;7.13;;;5.72;;
55172;SDS011;41061;52.822;6.860;2022-09-30T17:22:46;8.77;;;5.57;;
55172;SDS011;41061;52.822;6.860;2022-09-30T17:25:13;8.40;;;5.65;;
55172;SDS011;41061;52.822;6.860;2022-09-30T17:27:46;7.60;;;5.18;;
55172;SDS011;41061;52.822;6.860;2022-09-30T17:30:15;11.68;;;5.60;;
55172;SDS011;41061;52.822;6.860;2022-09-30T17:32:42;7.80;;;5.70;;
55172;SDS011;41061;52.822;6.860;2022-09-30T17:35:08;8.98;;;5.32;;
55172;SDS011;41061;52.822;6.860;2022-09-30T17:37:35;7.80;;;5.22;;
55172;SDS011;41061;52.822;6.860;2022-09-30T17:40:01;6.35;;;5.07;;
55172;SDS011;41061;52.822;6.860;2022-09-30T17:42:50;6.40;;;4.68;;
55172;SDS011;41061;52.822;6.860;2022-09-30T17:45:35;8.20;;;4.88;;
55172;SDS011;41061;52.822;6.860;2022-09-30T17:48:03;7.65;;;4.45;;
55172;SDS011;41061;52.822;6.860;2022-09-30T17:50:32;9.35;;;4.57;;
55172;SDS011;41061;52.822;6.860;2022-09-30T17:52:58;9.23;;;4.50;;
55172;SDS011;41061;52.822;6.860;2022-09-30T17:55:26;8.50;;;5.07;;
55172;SDS011;41061;52.822;6.860;2022-09-30T17:57:55;8.43;;;4.53;;
55172;SDS011;41061;52.822;6.860;2022-09-30T18:00:21;7.78;;;4.55;;
55172;SDS011;41061;52.822;6.860;2022-09-30T18:02:52;4.43;;;3.90;;
55172;SDS011;41061;52.822;6.860;2022-09-30T18:05:19;6.43;;;4.47;;
55172;SDS011;41061;52.822;6.860;2022-09-30T18:07:49;7.05;;;4.47;;
55172;SDS011;41061;52.822;6.860;2022-09-30T18:10:15;6.95;;;4.72;;
55172;SDS011;41061;52.822;6.860;2022-09-30T18:12:41;7.25;;;4.72;;
55172;SDS011;41061;52.822;6.860;2022-09-30T18:15:08;8.45;;;4.38;;
55172;SDS011;41061;52.822;6.860;2022-09-30T18:17:34;6.25;;;4.15;;
55172;SDS011;41061;52.822;6.860;2022-09-30T18:20:00;6.20;;;4.20;;